sensor_id;sensor_type;location;lat;lon;timestamp;P1;durP1;ratioP1;P2;durP2;ratioP2
21814;SDS011;11069;48.988;8.450;2022-09-09T00:00:08;5.00;;;1.85;;
21814;SDS011;11069;48.988;8.450;2022-09-09T00:02:38;6.22;;;1.90;;
21814;SDS011;11069;48.988;8.450;2022-09-09T00:05:14;5.72;;;2.05;;
21814;SDS011;11069;48.988;8.450;2022-09-09T00:07:44;10.10;;;2.28;;
21814;SDS011;11069;48.988;8.450;2022-09-09T00:13:22;4.43;;;2.05;;
21814;SDS011;11069;48.988;8.450;2022-09-09T00:21:08;8.50;;;2.33;;
21814;SDS011;11069;48.988;8.450;2022-09-09T00:23:43;4.97;;;2.10;;
21814;SDS011;11069;48.988;8.450;2022-09-09T00:26:27;5.57;;;2.10;;
21814;SDS011;11069;48.988;8.450;2022-09-09T00:32:11;10.63;;;2.58;;
21814;SDS011;11069;48.988;8.450;2022-09-09T00:34:42;9.15;;;2.28;;
21814;SDS011;11069;48.988;8.450;2022-09-09T00:37:18;10.10;;;2.92;;
21814;SDS011;11069;48.988;8.450;2022-09-09T00:39:46;8.95;;;2.65;;
21814;SDS011;11069;48.988;8.450;2022-09-09T00:42:20;8.57;;;2.50;;
21814;SDS011;11069;48.988;8.450;2022-09-09T00:47:34;9.40;;;2.40;;
21814;SDS011;11069;48.988;8.450;2022-09-09T00:58:42;8.23;;;2.45;;
21814;SDS011;11069;48.988;8.450;2022-09-09T01:01:15;5.85;;;2.50;;
21814;SDS011;11069;48.988;8.450;2022-09-09T01:09:13;6.35;;;2.92;;
21814;SDS011;11069;48.988;8.450;2022-09-09T01:16:50;5.03;;;2.40;;
21814;SDS011;11069;48.988;8.450;2022-09-09T01:19:22;11.73;;;2.83;;
21814;SDS011;11069;48.988;8.450;2022-09-09T01:22:00;7.75;;;2.80;;
21814;SDS011;11069;48.988;8.450;2022-09-09T01:27:34;7.50;;;2.72;;
21814;SDS011;11069;48.988;8.450;2022-09-09T01:30:00;8.73;;;2.33;;
21814;SDS011;11069;48.988;8.450;2022-09-09T01:32:40;7.13;;;2.10;;
21814;SDS011;11069;48.988;8.450;2022-09-09T01:35:12;11.00;;;2.47;;
21814;SDS011;11069;48.988;8.450;2022-09-09T01:38:00;6.85;;;2.33;;
21814;SDS011;11069;48.988;8.450;2022-09-09T01:40:25;6.57;;;1.90;;
21814;SDS011;11069;48.988;8.450;2022-09-09T01:42:52;6.30;;;2.17;;
21814;SDS011;11069;48.988;8.450;2022-09-09T01:45:18;6.65;;;2.00;;
21814;SDS011;11069;48.988;8.450;2022-09-09T01:47:44;6.60;;;2.13;;
21814;SDS011;11069;48.988;8.450;2022-09-09T01:50:11;5.97;;;2.10;;
21814;SDS011;11069;48.988;8.450;2022-09-09T01:52:39;7.93;;;2.25;;
21814;SDS011;11069;48.988;8.450;2022-09-09T01:55:07;7.55;;;2.67;;
21814;SDS011;11069;48.988;8.450;2022-09-09T01:57:37;6.07;;;1.80;;
21814;SDS011;11069;48.988;8.450;2022-09-09T02:00:12;7.13;;;1.73;;
21814;SDS011;11069;48.988;8.450;2022-09-09T02:02:52;5.75;;;1.88;;
21814;SDS011;11069;48.988;8.450;2022-09-09T02:05:52;5.18;;;1.63;;
21814;SDS011;11069;48.988;8.450;2022-09-09T02:08:36;6.65;;;1.42;;
21814;SDS011;11069;48.988;8.450;2022-09-09T02:11:12;4.60;;;1.40;;
21814;SDS011;11069;48.988;8.450;2022-09-09T02:13:40;2.20;;;0.98;;
21814;SDS011;11069;48.988;8.450;2022-09-09T02:16:13;2.30;;;1.20;;
21814;SDS011;11069;48.988;8.450;2022-09-09T02:21:17;2.00;;;1.02;;
21814;SDS011;11069;48.988;8.450;2022-09-09T02:23:44;4.25;;;1.10;;
21814;SDS011;11069;48.988;8.450;2022-09-09T02:26:12;4.05;;;1.33;;
21814;SDS011;11069;48.988;8.450;2022-09-09T02:28:44;2.83;;;1.02;;
21814;SDS011;11069;48.988;8.450;2022-09-09T02:31:12;4.35;;;1.45;;
21814;SDS011;11069;48.988;8.450;2022-09-09T02:33:41;4.07;;;1.25;;
21814;SDS011;11069;48.988;8.450;2022-09-09T02:36:09;3.25;;;1.30;;
21814;SDS011;11069;48.988;8.450;2022-09-09T02:38:41;2.50;;;1.00;;
21814;SDS011;11069;48.988;8.450;2022-09-09T02:41:23;4.07;;;1.40;;
21814;SDS011;11069;48.988;8.450;2022-09-09T02:43:52;3.83;;;1.30;;
21814;SDS011;11069;48.988;8.450;2022-09-09T02:46:32;3.85;;;1.38;;
21814;SDS011;11069;48.988;8.450;2022-09-09T02:49:11;6.90;;;1.50;;
21814;SDS011;11069;48.988;8.450;2022-09-09T02:54:41;5.65;;;1.50;;
21814;SDS011;11069;48.988;8.450;2022-09-09T02:57:12;7.13;;;1.50;;
21814;SDS011;11069;48.988;8.450;2022-09-09T02:59:42;3.63;;;1.38;;
21814;SDS011;11069;48.988;8.450;2022-09-09T03:02:09;3.42;;;1.30;;
21814;SDS011;11069;48.988;8.450;2022-09-09T03:04:36;4.82;;;1.58;;
21814;SDS011;11069;48.988;8.450;2022-09-09T03:07:02;5.25;;;1.55;;
21814;SDS011;11069;48.988;8.450;2022-09-09T03:09:28;5.70;;;1.30;;
21814;SDS011;11069;48.988;8.450;2022-09-09T03:11:54;7.43;;;1.88;;
21814;SDS011;11069;48.988;8.450;2022-09-09T03:14:20;4.50;;;1.33;;
21814;SDS011;11069;48.988;8.450;2022-09-09T03:16:49;4.63;;;1.60;;
21814;SDS011;11069;48.988;8.450;2022-09-09T03:19:16;4.90;;;1.20;;
21814;SDS011;11069;48.988;8.450;2022-09-09T03:21:43;4.95;;;1.67;;
21814;SDS011;11069;48.988;8.450;2022-09-09T03:24:09;7.97;;;1.63;;
21814;SDS011;11069;48.988;8.450;2022-09-09T03:26:35;3.45;;;1.60;;
21814;SDS011;11069;48.988;8.450;2022-09-09T03:29:02;4.10;;;1.60;;
21814;SDS011;11069;48.988;8.450;2022-09-09T03:31:31;3.22;;;1.48;;
21814;SDS011;11069;48.988;8.450;2022-09-09T03:33:57;8.13;;;1.80;;
21814;SDS011;11069;48.988;8.450;2022-09-09T03:36:24;3.90;;;1.60;;
21814;SDS011;11069;48.988;8.450;2022-09-09T03:38:51;3.97;;;1.50;;
21814;SDS011;11069;48.988;8.450;2022-09-09T03:41:17;5.53;;;1.75;;
21814;SDS011;11069;48.988;8.450;2022-09-09T03:43:43;4.15;;;1.40;;
21814;SDS011;11069;48.988;8.450;2022-09-09T03:46:09;8.18;;;1.50;;
21814;SDS011;11069;48.988;8.450;2022-09-09T03:48:35;4.47;;;1.63;;
21814;SDS011;11069;48.988;8.450;2022-09-09T03:51:00;3.08;;;1.30;;
21814;SDS011;11069;48.988;8.450;2022-09-09T03:53:27;3.28;;;1.60;;
21814;SDS011;11069;48.988;8.450;2022-09-09T03:55:54;2.90;;;1.35;;
21814;SDS011;11069;48.988;8.450;2022-09-09T03:58:24;2.95;;;1.52;;
21814;SDS011;11069;48.988;8.450;2022-09-09T04:03:21;1.85;;;1.65;;
21814;SDS011;11069;48.988;8.450;2022-09-09T04:05:49;4.97;;;1.75;;
21814;SDS011;11069;48.988;8.450;2022-09-09T04:08:18;4.35;;;1.73;;
21814;SDS011;11069;48.988;8.450;2022-09-09T04:10:48;4.55;;;2.00;;
21814;SDS011;11069;48.988;8.450;2022-09-09T04:13:15;4.88;;;1.80;;
21814;SDS011;11069;48.988;8.450;2022-09-09T04:15:42;5.53;;;2.00;;
21814;SDS011;11069;48.988;8.450;2022-09-09T04:18:19;4.30;;;1.70;;
21814;SDS011;11069;48.988;8.450;2022-09-09T04:20:48;3.33;;;2.13;;
21814;SDS011;11069;48.988;8.450;2022-09-09T04:23:15;3.10;;;1.73;;
21814;SDS011;11069;48.988;8.450;2022-09-09T04:25:48;3.20;;;1.60;;
21814;SDS011;11069;48.988;8.450;2022-09-09T04:28:15;5.47;;;1.88;;
21814;SDS011;11069;48.988;8.450;2022-09-09T04:30:42;7.43;;;1.98;;
21814;SDS011;11069;48.988;8.450;2022-09-09T04:33:08;3.00;;;1.50;;
21814;SDS011;11069;48.988;8.450;2022-09-09T04:35:34;5.22;;;1.50;;
21814;SDS011;11069;48.988;8.450;2022-09-09T04:38:00;6.15;;;1.92;;
21814;SDS011;11069;48.988;8.450;2022-09-09T04:40:27;4.00;;;2.00;;
21814;SDS011;11069;48.988;8.450;2022-09-09T04:42:54;4.80;;;2.40;;
21814;SDS011;11069;48.988;8.450;2022-09-09T04:45:20;4.35;;;1.77;;
21814;SDS011;11069;48.988;8.450;2022-09-09T04:47:46;2.70;;;1.92;;
21814;SDS011;11069;48.988;8.450;2022-09-09T04:50:11;4.90;;;1.70;;
21814;SDS011;11069;48.988;8.450;2022-09-09T04:52:37;7.28;;;2.10;;
21814;SDS011;11069;48.988;8.450;2022-09-09T04:55:03;5.93;;;1.70;;
21814;SDS011;11069;48.988;8.450;2022-09-09T04:57:29;3.83;;;1.90;;
21814;SDS011;11069;48.988;8.450;2022-09-09T04:59:56;3.65;;;1.98;;
21814;SDS011;11069;48.988;8.450;2022-09-09T05:02:23;5.30;;;2.30;;
21814;SDS011;11069;48.988;8.450;2022-09-09T05:04:48;4.45;;;1.85;;
21814;SDS011;11069;48.988;8.450;2022-09-09T05:07:14;4.32;;;1.70;;
21814;SDS011;11069;48.988;8.450;2022-09-09T05:09:40;5.80;;;2.20;;
21814;SDS011;11069;48.988;8.450;2022-09-09T05:12:06;2.42;;;1.80;;
21814;SDS011;11069;48.988;8.450;2022-09-09T05:14:31;6.70;;;2.20;;
21814;SDS011;11069;48.988;8.450;2022-09-09T05:16:57;4.80;;;2.15;;
21814;SDS011;11069;48.988;8.450;2022-09-09T05:19:23;4.25;;;1.98;;
21814;SDS011;11069;48.988;8.450;2022-09-09T05:21:49;4.38;;;2.13;;
21814;SDS011;11069;48.988;8.450;2022-09-09T05:24:37;5.00;;;1.85;;
21814;SDS011;11069;48.988;8.450;2022-09-09T05:27:03;4.78;;;2.03;;
21814;SDS011;11069;48.988;8.450;2022-09-09T05:29:31;5.68;;;2.30;;
21814;SDS011;11069;48.988;8.450;2022-09-09T05:31:58;6.18;;;2.20;;
21814;SDS011;11069;48.988;8.450;2022-09-09T05:34:24;6.88;;;2.45;;
21814;SDS011;11069;48.988;8.450;2022-09-09T05:36:49;4.63;;;1.90;;
21814;SDS011;11069;48.988;8.450;2022-09-09T05:39:17;5.38;;;2.10;;
21814;SDS011;11069;48.988;8.450;2022-09-09T05:41:42;4.50;;;1.83;;
21814;SDS011;11069;48.988;8.450;2022-09-09T05:44:08;6.22;;;2.00;;
21814;SDS011;11069;48.988;8.450;2022-09-09T05:46:33;8.35;;;1.90;;
21814;SDS011;11069;48.988;8.450;2022-09-09T05:48:59;5.90;;;1.95;;
21814;SDS011;11069;48.988;8.450;2022-09-09T05:51:26;3.38;;;2.38;;
21814;SDS011;11069;48.988;8.450;2022-09-09T05:53:54;5.20;;;2.28;;
21814;SDS011;11069;48.988;8.450;2022-09-09T05:56:24;5.57;;;2.28;;
21814;SDS011;11069;48.988;8.450;2022-09-09T05:58:51;4.57;;;2.38;;
21814;SDS011;11069;48.988;8.450;2022-09-09T06:01:19;5.97;;;2.10;;
21814;SDS011;11069;48.988;8.450;2022-09-09T06:03:47;4.35;;;2.17;;
21814;SDS011;11069;48.988;8.450;2022-09-09T06:06:14;6.57;;;2.00;;
21814;SDS011;11069;48.988;8.450;2022-09-09T06:08:43;5.70;;;1.90;;
21814;SDS011;11069;48.988;8.450;2022-09-09T06:11:14;6.28;;;1.63;;
21814;SDS011;11069;48.988;8.450;2022-09-09T06:13:41;6.03;;;1.40;;
21814;SDS011;11069;48.988;8.450;2022-09-09T06:16:12;4.43;;;1.75;;
21814;SDS011;11069;48.988;8.450;2022-09-09T06:18:40;4.47;;;1.65;;
21814;SDS011;11069;48.988;8.450;2022-09-09T06:21:07;4.22;;;1.48;;
21814;SDS011;11069;48.988;8.450;2022-09-09T06:23:40;2.50;;;1.40;;
21814;SDS011;11069;48.988;8.450;2022-09-09T06:26:18;6.38;;;1.52;;
21814;SDS011;11069;48.988;8.450;2022-09-09T06:28:47;6.07;;;1.38;;
21814;SDS011;11069;48.988;8.450;2022-09-09T06:31:17;7.28;;;1.50;;
21814;SDS011;11069;48.988;8.450;2022-09-09T06:33:48;6.10;;;1.65;;
21814;SDS011;11069;48.988;8.450;2022-09-09T06:36:22;6.32;;;1.40;;
21814;SDS011;11069;48.988;8.450;2022-09-09T06:38:52;6.00;;;1.70;;
21814;SDS011;11069;48.988;8.450;2022-09-09T06:41:18;5.43;;;1.45;;
21814;SDS011;11069;48.988;8.450;2022-09-09T06:43:46;6.20;;;1.73;;
21814;SDS011;11069;48.988;8.450;2022-09-09T06:46:13;3.60;;;1.23;;
21814;SDS011;11069;48.988;8.450;2022-09-09T06:48:58;5.05;;;1.58;;
21814;SDS011;11069;48.988;8.450;2022-09-09T06:51:34;3.97;;;1.60;;
21814;SDS011;11069;48.988;8.450;2022-09-09T06:54:01;6.43;;;1.77;;
21814;SDS011;11069;48.988;8.450;2022-09-09T06:56:32;8.57;;;1.90;;
21814;SDS011;11069;48.988;8.450;2022-09-09T06:59:06;7.45;;;1.60;;
21814;SDS011;11069;48.988;8.450;2022-09-09T07:01:33;7.67;;;1.70;;
21814;SDS011;11069;48.988;8.450;2022-09-09T07:04:01;5.75;;;1.65;;
21814;SDS011;11069;48.988;8.450;2022-09-09T07:06:29;5.30;;;1.67;;
21814;SDS011;11069;48.988;8.450;2022-09-09T07:09:03;8.15;;;1.65;;
21814;SDS011;11069;48.988;8.450;2022-09-09T07:11:32;7.70;;;1.58;;
21814;SDS011;11069;48.988;8.450;2022-09-09T07:14:00;8.20;;;1.80;;
21814;SDS011;11069;48.988;8.450;2022-09-09T07:16:26;8.07;;;1.75;;
21814;SDS011;11069;48.988;8.450;2022-09-09T07:18:52;4.82;;;1.80;;
21814;SDS011;11069;48.988;8.450;2022-09-09T07:21:22;5.03;;;1.52;;
21814;SDS011;11069;48.988;8.450;2022-09-09T07:23:49;9.65;;;2.03;;
21814;SDS011;11069;48.988;8.450;2022-09-09T07:26:16;8.52;;;1.50;;
21814;SDS011;11069;48.988;8.450;2022-09-09T07:28:44;4.55;;;1.70;;
21814;SDS011;11069;48.988;8.450;2022-09-09T07:31:15;3.10;;;1.50;;
21814;SDS011;11069;48.988;8.450;2022-09-09T07:33:50;10.18;;;1.90;;
21814;SDS011;11069;48.988;8.450;2022-09-09T07:36:17;6.85;;;1.83;;
21814;SDS011;11069;48.988;8.450;2022-09-09T07:38:43;6.97;;;1.85;;
21814;SDS011;11069;48.988;8.450;2022-09-09T07:41:33;4.22;;;1.50;;
21814;SDS011;11069;48.988;8.450;2022-09-09T07:44:05;5.90;;;1.88;;
21814;SDS011;11069;48.988;8.450;2022-09-09T07:46:36;5.72;;;2.00;;
21814;SDS011;11069;48.988;8.450;2022-09-09T07:49:04;8.02;;;1.70;;
21814;SDS011;11069;48.988;8.450;2022-09-09T07:51:32;5.80;;;1.42;;
21814;SDS011;11069;48.988;8.450;2022-09-09T07:54:00;6.03;;;1.40;;
21814;SDS011;11069;48.988;8.450;2022-09-09T07:56:28;5.18;;;1.60;;
21814;SDS011;11069;48.988;8.450;2022-09-09T07:58:55;5.28;;;1.63;;
21814;SDS011;11069;48.988;8.450;2022-09-09T08:01:29;4.85;;;1.80;;
21814;SDS011;11069;48.988;8.450;2022-09-09T08:03:57;4.70;;;1.73;;
21814;SDS011;11069;48.988;8.450;2022-09-09T08:06:31;3.60;;;1.50;;
21814;SDS011;11069;48.988;8.450;2022-09-09T08:08:59;4.50;;;1.52;;
21814;SDS011;11069;48.988;8.450;2022-09-09T08:11:26;5.70;;;1.85;;
21814;SDS011;11069;48.988;8.450;2022-09-09T08:13:52;5.57;;;1.50;;
21814;SDS011;11069;48.988;8.450;2022-09-09T08:16:20;5.68;;;1.50;;
21814;SDS011;11069;48.988;8.450;2022-09-09T08:18:51;5.75;;;1.30;;
21814;SDS011;11069;48.988;8.450;2022-09-09T08:21:18;4.63;;;1.80;;
21814;SDS011;11069;48.988;8.450;2022-09-09T08:23:46;7.32;;;1.60;;
21814;SDS011;11069;48.988;8.450;2022-09-09T08:26:19;5.18;;;1.30;;
21814;SDS011;11069;48.988;8.450;2022-09-09T08:28:49;6.57;;;2.13;;
21814;SDS011;11069;48.988;8.450;2022-09-09T08:31:18;7.68;;;1.80;;
21814;SDS011;11069;48.988;8.450;2022-09-09T08:33:48;3.45;;;1.30;;
21814;SDS011;11069;48.988;8.450;2022-09-09T08:36:15;7.20;;;1.70;;
21814;SDS011;11069;48.988;8.450;2022-09-09T08:38:42;6.32;;;1.60;;
21814;SDS011;11069;48.988;8.450;2022-09-09T08:43:39;4.68;;;1.90;;
21814;SDS011;11069;48.988;8.450;2022-09-09T08:46:13;4.78;;;1.33;;
21814;SDS011;11069;48.988;8.450;2022-09-09T08:51:31;5.97;;;1.88;;
21814;SDS011;11069;48.988;8.450;2022-09-09T08:53:58;7.53;;;2.08;;
21814;SDS011;11069;48.988;8.450;2022-09-09T08:56:28;6.28;;;2.40;;
21814;SDS011;11069;48.988;8.450;2022-09-09T08:58:56;5.93;;;2.22;;
21814;SDS011;11069;48.988;8.450;2022-09-09T09:09:42;4.82;;;1.55;;
21814;SDS011;11069;48.988;8.450;2022-09-09T09:12:39;6.68;;;1.80;;
21814;SDS011;11069;48.988;8.450;2022-09-09T09:15:19;6.25;;;1.85;;
21814;SDS011;11069;48.988;8.450;2022-09-09T09:17:48;10.00;;;2.25;;
21814;SDS011;11069;48.988;8.450;2022-09-09T09:20:15;6.40;;;2.00;;
21814;SDS011;11069;48.988;8.450;2022-09-09T09:22:48;8.38;;;2.25;;
21814;SDS011;11069;48.988;8.450;2022-09-09T09:28:13;7.68;;;1.83;;
21814;SDS011;11069;48.988;8.450;2022-09-09T09:33:21;7.47;;;2.17;;
21814;SDS011;11069;48.988;8.450;2022-09-09T09:35:54;6.55;;;1.85;;
21814;SDS011;11069;48.988;8.450;2022-09-09T09:38:21;7.32;;;1.95;;
21814;SDS011;11069;48.988;8.450;2022-09-09T09:40:50;7.97;;;1.67;;
21814;SDS011;11069;48.988;8.450;2022-09-09T09:43:22;7.30;;;1.52;;
21814;SDS011;11069;48.988;8.450;2022-09-09T09:45:53;6.65;;;1.52;;
21814;SDS011;11069;48.988;8.450;2022-09-09T09:48:20;5.97;;;1.50;;
21814;SDS011;11069;48.988;8.450;2022-09-09T09:50:52;4.75;;;1.45;;
21814;SDS011;11069;48.988;8.450;2022-09-09T09:53:40;10.52;;;1.90;;
21814;SDS011;11069;48.988;8.450;2022-09-09T09:56:10;3.67;;;1.20;;
21814;SDS011;11069;48.988;8.450;2022-09-09T10:01:22;3.95;;;1.40;;
21814;SDS011;11069;48.988;8.450;2022-09-09T10:03:53;6.43;;;1.50;;
21814;SDS011;11069;48.988;8.450;2022-09-09T10:06:29;6.85;;;1.60;;
21814;SDS011;11069;48.988;8.450;2022-09-09T10:08:59;7.63;;;1.80;;
21814;SDS011;11069;48.988;8.450;2022-09-09T10:11:30;5.22;;;1.50;;
21814;SDS011;11069;48.988;8.450;2022-09-09T10:14:33;3.20;;;1.35;;
21814;SDS011;11069;48.988;8.450;2022-09-09T10:17:17;6.05;;;1.60;;
21814;SDS011;11069;48.988;8.450;2022-09-09T10:20:00;8.13;;;1.58;;
21814;SDS011;11069;48.988;8.450;2022-09-09T10:22:33;7.13;;;1.65;;
21814;SDS011;11069;48.988;8.450;2022-09-09T10:25:11;5.47;;;1.65;;
21814;SDS011;11069;48.988;8.450;2022-09-09T10:38:39;5.35;;;1.83;;
21814;SDS011;11069;48.988;8.450;2022-09-09T10:41:13;6.22;;;1.73;;
21814;SDS011;11069;48.988;8.450;2022-09-09T10:44:19;7.22;;;2.00;;
21814;SDS011;11069;48.988;8.450;2022-09-09T10:47:12;8.52;;;2.17;;
21814;SDS011;11069;48.988;8.450;2022-09-09T10:53:14;6.60;;;2.10;;
21814;SDS011;11069;48.988;8.450;2022-09-09T10:56:09;4.70;;;1.42;;
21814;SDS011;11069;48.988;8.450;2022-09-09T10:59:40;6.13;;;1.52;;
21814;SDS011;11069;48.988;8.450;2022-09-09T11:04:21;5.43;;;1.67;;
21814;SDS011;11069;48.988;8.450;2022-09-09T11:07:00;6.25;;;1.65;;
21814;SDS011;11069;48.988;8.450;2022-09-09T11:09:40;6.60;;;1.80;;
21814;SDS011;11069;48.988;8.450;2022-09-09T11:12:10;4.45;;;1.80;;
21814;SDS011;11069;48.988;8.450;2022-09-09T11:14:45;8.23;;;2.03;;
21814;SDS011;11069;48.988;8.450;2022-09-09T11:19:58;6.20;;;1.55;;
21814;SDS011;11069;48.988;8.450;2022-09-09T11:25:01;6.03;;;2.03;;
21814;SDS011;11069;48.988;8.450;2022-09-09T11:27:36;7.85;;;1.80;;
21814;SDS011;11069;48.988;8.450;2022-09-09T11:30:24;6.05;;;1.80;;
21814;SDS011;11069;48.988;8.450;2022-09-09T11:38:46;6.97;;;1.83;;
21814;SDS011;11069;48.988;8.450;2022-09-09T11:41:16;5.18;;;1.52;;
21814;SDS011;11069;48.988;8.450;2022-09-09T11:43:46;5.65;;;1.52;;
21814;SDS011;11069;48.988;8.450;2022-09-09T11:46:16;4.38;;;1.50;;
21814;SDS011;11069;48.988;8.450;2022-09-09T11:48:45;3.95;;;1.45;;
21814;SDS011;11069;48.988;8.450;2022-09-09T11:51:27;3.40;;;1.35;;
21814;SDS011;11069;48.988;8.450;2022-09-09T11:53:56;5.80;;;1.58;;
21814;SDS011;11069;48.988;8.450;2022-09-09T11:56:45;4.07;;;1.35;;
21814;SDS011;11069;48.988;8.450;2022-09-09T11:59:20;4.55;;;1.60;;
21814;SDS011;11069;48.988;8.450;2022-09-09T12:02:01;6.47;;;1.40;;
21814;SDS011;11069;48.988;8.450;2022-09-09T12:12:49;7.60;;;1.70;;
21814;SDS011;11069;48.988;8.450;2022-09-09T12:15:19;7.78;;;1.65;;
21814;SDS011;11069;48.988;8.450;2022-09-09T12:17:48;5.97;;;1.40;;
21814;SDS011;11069;48.988;8.450;2022-09-09T12:29:08;5.13;;;1.77;;
21814;SDS011;11069;48.988;8.450;2022-09-09T12:31:08;4.40;;;1.00;;
21814;SDS011;11069;48.988;8.450;2022-09-09T12:33:42;3.92;;;1.23;;
21814;SDS011;11069;48.988;8.450;2022-09-09T12:36:31;7.72;;;1.60;;
21814;SDS011;11069;48.988;8.450;2022-09-09T12:38:58;4.45;;;1.50;;
21814;SDS011;11069;48.988;8.450;2022-09-09T12:41:35;6.13;;;1.55;;
21814;SDS011;11069;48.988;8.450;2022-09-09T12:44:04;4.65;;;1.15;;
21814;SDS011;11069;48.988;8.450;2022-09-09T12:46:36;4.25;;;1.23;;
21814;SDS011;11069;48.988;8.450;2022-09-09T12:49:05;4.30;;;1.15;;
21814;SDS011;11069;48.988;8.450;2022-09-09T12:51:49;4.80;;;1.25;;
21814;SDS011;11069;48.988;8.450;2022-09-09T12:54:15;2.78;;;1.23;;
21814;SDS011;11069;48.988;8.450;2022-09-09T12:56:44;3.72;;;1.27;;
21814;SDS011;11069;48.988;8.450;2022-09-09T13:00:03;16.35;;;2.55;;
21814;SDS011;11069;48.988;8.450;2022-09-09T13:02:01;9.70;;;1.73;;
21814;SDS011;11069;48.988;8.450;2022-09-09T13:04:27;9.40;;;1.42;;
21814;SDS011;11069;48.988;8.450;2022-09-09T13:06:53;8.43;;;1.75;;
21814;SDS011;11069;48.988;8.450;2022-09-09T13:09:19;5.30;;;1.52;;
21814;SDS011;11069;48.988;8.450;2022-09-09T13:11:46;9.07;;;1.83;;
21814;SDS011;11069;48.988;8.450;2022-09-09T13:14:31;4.70;;;1.65;;
21814;SDS011;11069;48.988;8.450;2022-09-09T13:17:02;5.80;;;1.50;;
21814;SDS011;11069;48.988;8.450;2022-09-09T13:19:31;5.43;;;1.50;;
21814;SDS011;11069;48.988;8.450;2022-09-09T13:22:10;7.50;;;1.75;;
21814;SDS011;11069;48.988;8.450;2022-09-09T13:24:38;7.78;;;1.92;;
21814;SDS011;11069;48.988;8.450;2022-09-09T13:27:05;8.23;;;1.83;;
21814;SDS011;11069;48.988;8.450;2022-09-09T13:29:55;5.28;;;1.35;;
21814;SDS011;11069;48.988;8.450;2022-09-09T13:32:22;7.53;;;1.73;;
21814;SDS011;11069;48.988;8.450;2022-09-09T13:34:56;7.00;;;1.80;;
21814;SDS011;11069;48.988;8.450;2022-09-09T13:37:33;10.57;;;2.28;;
21814;SDS011;11069;48.988;8.450;2022-09-09T13:39:59;4.35;;;1.35;;
21814;SDS011;11069;48.988;8.450;2022-09-09T13:42:26;6.25;;;1.60;;
21814;SDS011;11069;48.988;8.450;2022-09-09T13:44:56;5.68;;;1.52;;
21814;SDS011;11069;48.988;8.450;2022-09-09T13:47:29;5.47;;;1.40;;
21814;SDS011;11069;48.988;8.450;2022-09-09T13:49:57;6.45;;;1.65;;
21814;SDS011;11069;48.988;8.450;2022-09-09T13:52:23;5.57;;;1.90;;
21814;SDS011;11069;48.988;8.450;2022-09-09T13:54:49;6.30;;;1.75;;
21814;SDS011;11069;48.988;8.450;2022-09-09T13:57:17;8.90;;;2.03;;
21814;SDS011;11069;48.988;8.450;2022-09-09T13:59:47;4.22;;;1.60;;
21814;SDS011;11069;48.988;8.450;2022-09-09T14:02:13;5.15;;;1.50;;
21814;SDS011;11069;48.988;8.450;2022-09-09T14:04:40;7.38;;;1.63;;
21814;SDS011;11069;48.988;8.450;2022-09-09T14:07:09;5.60;;;1.70;;
21814;SDS011;11069;48.988;8.450;2022-09-09T14:09:38;6.32;;;1.50;;
21814;SDS011;11069;48.988;8.450;2022-09-09T14:12:05;6.30;;;1.40;;
21814;SDS011;11069;48.988;8.450;2022-09-09T14:14:33;5.32;;;1.60;;
21814;SDS011;11069;48.988;8.450;2022-09-09T14:16:59;8.57;;;1.92;;
21814;SDS011;11069;48.988;8.450;2022-09-09T14:19:25;5.90;;;1.73;;
21814;SDS011;11069;48.988;8.450;2022-09-09T14:21:51;5.50;;;1.52;;
21814;SDS011;11069;48.988;8.450;2022-09-09T14:24:17;10.32;;;1.67;;
21814;SDS011;11069;48.988;8.450;2022-09-09T14:26:42;4.82;;;1.48;;
21814;SDS011;11069;48.988;8.450;2022-09-09T14:29:08;5.03;;;1.60;;
21814;SDS011;11069;48.988;8.450;2022-09-09T14:31:34;5.28;;;1.80;;
21814;SDS011;11069;48.988;8.450;2022-09-09T14:33:59;4.63;;;1.60;;
21814;SDS011;11069;48.988;8.450;2022-09-09T14:36:25;4.68;;;1.60;;
21814;SDS011;11069;48.988;8.450;2022-09-09T14:38:50;8.02;;;1.63;;
21814;SDS011;11069;48.988;8.450;2022-09-09T14:41:17;5.25;;;1.70;;
21814;SDS011;11069;48.988;8.450;2022-09-09T14:43:47;4.75;;;1.45;;
21814;SDS011;11069;48.988;8.450;2022-09-09T14:46:14;3.90;;;1.63;;
21814;SDS011;11069;48.988;8.450;2022-09-09T14:48:41;5.05;;;1.27;;
21814;SDS011;11069;48.988;8.450;2022-09-09T14:51:20;7.25;;;2.15;;
21814;SDS011;11069;48.988;8.450;2022-09-09T14:53:48;7.78;;;2.00;;
21814;SDS011;11069;48.988;8.450;2022-09-09T14:56:19;7.05;;;1.67;;
21814;SDS011;11069;48.988;8.450;2022-09-09T14:58:47;6.45;;;1.92;;
21814;SDS011;11069;48.988;8.450;2022-09-09T15:01:17;13.18;;;2.38;;
21814;SDS011;11069;48.988;8.450;2022-09-09T15:03:48;9.27;;;2.42;;
21814;SDS011;11069;48.988;8.450;2022-09-09T15:06:16;8.10;;;2.20;;
21814;SDS011;11069;48.988;8.450;2022-09-09T15:08:43;7.72;;;2.22;;
21814;SDS011;11069;48.988;8.450;2022-09-09T15:11:10;8.80;;;1.85;;
21814;SDS011;11069;48.988;8.450;2022-09-09T15:13:37;5.65;;;1.90;;
21814;SDS011;11069;48.988;8.450;2022-09-09T15:16:04;5.00;;;1.77;;
21814;SDS011;11069;48.988;8.450;2022-09-09T15:18:30;8.20;;;3.83;;
21814;SDS011;11069;48.988;8.450;2022-09-09T15:20:58;4.47;;;1.95;;
21814;SDS011;11069;48.988;8.450;2022-09-09T15:23:25;8.60;;;2.05;;
21814;SDS011;11069;48.988;8.450;2022-09-09T15:25:51;7.70;;;2.10;;
21814;SDS011;11069;48.988;8.450;2022-09-09T15:28:18;5.93;;;1.77;;
21814;SDS011;11069;48.988;8.450;2022-09-09T15:30:46;9.23;;;2.45;;
21814;SDS011;11069;48.988;8.450;2022-09-09T15:33:13;3.95;;;1.50;;
21814;SDS011;11069;48.988;8.450;2022-09-09T15:35:38;7.68;;;1.65;;
21814;SDS011;11069;48.988;8.450;2022-09-09T15:38:04;4.78;;;1.65;;
21814;SDS011;11069;48.988;8.450;2022-09-09T15:40:30;5.93;;;1.88;;
21814;SDS011;11069;48.988;8.450;2022-09-09T15:42:57;4.95;;;1.67;;
21814;SDS011;11069;48.988;8.450;2022-09-09T15:45:23;4.93;;;1.73;;
21814;SDS011;11069;48.988;8.450;2022-09-09T15:47:49;4.72;;;1.90;;
21814;SDS011;11069;48.988;8.450;2022-09-09T15:50:14;5.13;;;1.42;;
21814;SDS011;11069;48.988;8.450;2022-09-09T15:52:40;4.65;;;1.60;;
21814;SDS011;11069;48.988;8.450;2022-09-09T15:55:06;5.03;;;1.60;;
21814;SDS011;11069;48.988;8.450;2022-09-09T15:57:33;5.07;;;1.50;;
21814;SDS011;11069;48.988;8.450;2022-09-09T15:59:59;2.78;;;1.00;;
21814;SDS011;11069;48.988;8.450;2022-09-09T16:02:26;5.18;;;1.23;;
21814;SDS011;11069;48.988;8.450;2022-09-09T16:04:52;3.47;;;1.00;;
21814;SDS011;11069;48.988;8.450;2022-09-09T16:07:17;6.10;;;1.23;;
21814;SDS011;11069;48.988;8.450;2022-09-09T16:09:43;2.95;;;1.00;;
21814;SDS011;11069;48.988;8.450;2022-09-09T16:12:09;4.72;;;1.15;;
21814;SDS011;11069;48.988;8.450;2022-09-09T16:14:37;1.33;;;0.70;;
21814;SDS011;11069;48.988;8.450;2022-09-09T16:17:03;2.83;;;0.90;;
21814;SDS011;11069;48.988;8.450;2022-09-09T16:19:30;3.58;;;0.98;;
21814;SDS011;11069;48.988;8.450;2022-09-09T16:21:57;2.60;;;1.00;;
21814;SDS011;11069;48.988;8.450;2022-09-09T16:24:23;4.10;;;1.00;;
21814;SDS011;11069;48.988;8.450;2022-09-09T16:26:52;1.85;;;0.88;;
21814;SDS011;11069;48.988;8.450;2022-09-09T16:29:19;1.65;;;0.85;;
21814;SDS011;11069;48.988;8.450;2022-09-09T16:31:49;2.17;;;1.05;;
21814;SDS011;11069;48.988;8.450;2022-09-09T16:34:16;2.33;;;1.10;;
21814;SDS011;11069;48.988;8.450;2022-09-09T16:36:42;3.70;;;1.10;;
21814;SDS011;11069;48.988;8.450;2022-09-09T16:39:10;1.75;;;0.70;;
21814;SDS011;11069;48.988;8.450;2022-09-09T16:41:38;5.15;;;1.30;;
21814;SDS011;11069;48.988;8.450;2022-09-09T16:44:06;5.63;;;1.20;;
21814;SDS011;11069;48.988;8.450;2022-09-09T16:46:34;2.35;;;0.98;;
21814;SDS011;11069;48.988;8.450;2022-09-09T16:49:03;6.80;;;1.27;;
21814;SDS011;11069;48.988;8.450;2022-09-09T16:51:32;2.47;;;1.35;;
21814;SDS011;11069;48.988;8.450;2022-09-09T16:54:00;7.38;;;1.50;;
21814;SDS011;11069;48.988;8.450;2022-09-09T16:56:28;3.65;;;1.30;;